createdAt,value
2023-05-02T00:01:20.066Z,64.40
2023-05-02T00:03:47.309Z,64.60
2023-05-02T00:06:14.316Z,64.80
2023-05-02T00:08:41.284Z,64.90
2023-05-02T00:11:08.078Z,65.10
2023-05-02T00:13:34.840Z,64.60
2023-05-02T00:16:01.578Z,64.50
2023-05-02T00:18:28.401Z,64.50
2023-05-02T00:20:56.970Z,64.60
2023-05-02T00:23:24.129Z,65.40
2023-05-02T00:25:50.915Z,64.90
2023-05-02T00:28:18.197Z,64.50
2023-05-02T00:30:46.152Z,64.60
2023-05-02T00:33:14.804Z,65.20
2023-05-02T00:35:42.015Z,65.60
2023-05-02T00:38:08.833Z,64.70
2023-05-02T00:40:49.214Z,64.60
2023-05-02T00:43:17.118Z,66.80
2023-05-02T00:45:46.230Z,66.00
2023-05-02T00:48:13.149Z,65.90
2023-05-02T00:50:42.028Z,65.30
2023-05-02T00:53:10.241Z,66.50
2023-05-02T00:55:37.157Z,66.60
2023-05-02T00:58:07.144Z,65.90
2023-05-02T01:00:57.233Z,67.20
2023-05-02T01:03:42.298Z,68.00
2023-05-02T01:06:43.353Z,67.80
2023-05-02T01:09:25.321Z,67.90
2023-05-02T01:12:20.919Z,68.30
2023-05-02T01:14:53.971Z,68.70
2023-05-02T01:17:24.693Z,68.70
2023-05-02T01:19:54.869Z,68.50
2023-05-02T01:22:24.294Z,68.70
2023-05-02T01:25:19.951Z,68.90
2023-05-02T01:28:25.329Z,69.80
2023-05-02T01:30:56.189Z,70.30
2023-05-02T01:33:25.583Z,69.40
2023-05-02T01:35:53.673Z,69.20
2023-05-02T01:38:22.098Z,68.60
2023-05-02T01:40:51.450Z,68.50
2023-05-02T01:43:20.111Z,68.40
2023-05-02T01:45:50.120Z,67.80
2023-05-02T01:48:19.325Z,68.30
2023-05-02T01:50:47.630Z,67.80
2023-05-02T01:53:15.290Z,67.90
2023-05-02T01:55:45.259Z,67.20
2023-05-02T01:58:15.093Z,68.40
2023-05-02T02:00:45.289Z,67.90
2023-05-02T02:03:14.265Z,67.70
2023-05-02T02:05:41.708Z,67.80
2023-05-02T02:08:09.009Z,67.40
2023-05-02T02:10:43.208Z,67.50
2023-05-02T02:13:18.319Z,68.20
2023-05-02T02:15:49.167Z,67.90
2023-05-02T02:18:26.359Z,67.60
2023-05-02T02:20:55.417Z,68.00
2023-05-02T02:23:26.742Z,67.20
2023-05-02T02:25:54.320Z,66.90
2023-05-02T02:28:21.083Z,66.40
2023-05-02T02:30:48.308Z,66.00
2023-05-02T02:33:15.105Z,66.10
2023-05-02T02:35:48.276Z,66.00
2023-05-02T02:38:31.521Z,67.00
2023-05-02T02:41:13.429Z,67.60
2023-05-02T02:43:58.251Z,66.70
2023-05-02T02:46:43.828Z,66.70
2023-05-02T02:49:52.777Z,64.10
2023-05-02T02:52:45.016Z,66.20
2023-05-02T02:55:38.475Z,65.70
2023-05-02T02:58:25.557Z,66.20
2023-05-02T03:00:53.094Z,65.80
2023-05-02T03:03:22.576Z,64.00
2023-05-02T03:05:51.804Z,64.60
2023-05-02T03:08:18.562Z,64.10
2023-05-02T03:10:45.312Z,63.70
2023-05-02T03:13:12.439Z,63.60
2023-05-02T03:15:53.229Z,63.50
2023-05-02T03:18:26.753Z,66.00
2023-05-02T03:20:54.256Z,63.70
2023-05-02T03:23:21.031Z,63.90
2023-05-02T03:25:48.807Z,63.80
2023-05-02T03:28:20.838Z,63.70
2023-05-02T03:30:49.326Z,63.70
2023-05-02T03:33:16.427Z,63.80
2023-05-02T03:35:44.813Z,63.60
2023-05-02T03:38:12.760Z,64.70
2023-05-02T03:40:39.672Z,63.30
2023-05-02T03:43:09.953Z,63.10
2023-05-02T03:45:36.857Z,63.10
2023-05-02T03:48:03.814Z,63.20
2023-05-02T03:50:31.085Z,63.20
2023-05-02T03:52:58.931Z,63.10
2023-05-02T03:55:45.789Z,64.20
2023-05-02T03:58:19.974Z,65.50
2023-05-02T04:00:47.083Z,63.50
2023-05-02T04:03:15.026Z,63.50
2023-05-02T04:05:44.309Z,63.40
2023-05-02T04:08:13.373Z,63.40
2023-05-02T04:10:40.874Z,63.70
2023-05-02T04:13:10.024Z,63.90
2023-05-02T04:15:40.236Z,64.10
2023-05-02T04:18:07.601Z,64.00
2023-05-02T04:20:35.717Z,64.20
2023-05-02T04:23:02.682Z,64.00
2023-05-02T04:25:29.725Z,64.00
2023-05-02T04:27:59.756Z,64.60
2023-05-02T04:30:26.579Z,64.10
2023-05-02T04:33:00.188Z,64.20
2023-05-02T04:35:31.289Z,63.90
2023-05-02T04:37:58.143Z,63.70
2023-05-02T04:40:26.096Z,63.50
2023-05-02T04:42:59.854Z,63.10
2023-05-02T04:45:36.635Z,63.30
2023-05-02T04:48:05.999Z,64.70
2023-05-02T04:50:32.878Z,63.90
2023-05-02T04:52:59.659Z,63.70
2023-05-02T04:55:27.211Z,63.80
2023-05-02T04:57:53.965Z,63.40
2023-05-02T05:00:21.857Z,63.20
2023-05-02T05:02:48.756Z,63.10
2023-05-02T05:05:16.345Z,63.80
2023-05-02T05:07:43.520Z,63.10
2023-05-02T05:10:13.893Z,62.90
2023-05-02T05:12:44.724Z,62.20
2023-05-02T05:15:11.790Z,62.60
2023-05-02T05:17:40.832Z,62.50
2023-05-02T05:20:10.180Z,62.30
2023-05-02T05:22:42.259Z,62.40
2023-05-02T05:25:11.526Z,63.70
2023-05-02T05:27:38.620Z,61.90
2023-05-02T05:30:08.850Z,61.40
2023-05-02T05:32:35.768Z,61.80
2023-05-02T05:35:02.758Z,61.50
2023-05-02T05:37:29.484Z,61.70
2023-05-02T05:39:58.394Z,61.80
2023-05-02T05:42:25.807Z,62.10
2023-05-02T05:44:56.267Z,62.10
2023-05-02T05:47:23.738Z,62.10
2023-05-02T05:49:55.930Z,62.20
2023-05-02T05:52:26.819Z,64.50
2023-05-02T05:54:56.634Z,62.40
2023-05-02T05:57:24.943Z,62.60
2023-05-02T05:59:52.756Z,62.00
2023-05-02T06:02:19.952Z,61.40
2023-05-02T06:04:47.015Z,61.50
2023-05-02T06:07:16.121Z,61.00
2023-05-02T06:09:42.890Z,61.20
2023-05-02T06:12:09.667Z,61.00
2023-05-02T06:14:37.561Z,60.60
2023-05-02T06:17:04.308Z,60.30
2023-05-02T06:19:31.098Z,60.00
2023-05-02T06:21:57.751Z,59.80
2023-05-02T06:24:24.500Z,59.00
2023-05-02T06:26:51.738Z,58.70
2023-05-02T06:29:18.521Z,58.70
2023-05-02T06:31:45.335Z,58.50
2023-05-02T06:34:12.238Z,58.40
2023-05-02T06:36:38.982Z,58.30
2023-05-02T06:39:05.738Z,58.80
2023-05-02T06:41:32.429Z,58.10
2023-05-02T06:43:59.577Z,57.40
2023-05-02T06:46:29.777Z,56.90
2023-05-02T06:48:56.649Z,59.20
2023-05-02T06:51:23.512Z,57.90
2023-05-02T06:53:50.257Z,57.60
2023-05-02T06:56:18.026Z,57.30
2023-05-02T06:58:44.722Z,58.60
2023-05-02T07:01:12.542Z,57.20
2023-05-02T07:03:39.355Z,57.50
2023-05-02T07:06:06.131Z,58.00
2023-05-02T07:08:32.897Z,57.50
2023-05-02T07:10:59.637Z,57.50
2023-05-02T07:13:26.401Z,57.40
2023-05-02T07:15:53.410Z,57.30
2023-05-02T07:18:21.180Z,58.30
2023-05-02T07:20:48.007Z,57.80
2023-05-02T07:23:14.727Z,57.90
2023-05-02T07:25:41.520Z,57.50
2023-05-02T07:28:08.558Z,58.10
2023-05-02T07:30:35.362Z,56.70
2023-05-02T07:33:02.284Z,56.10
2023-05-02T07:35:29.044Z,55.50
2023-05-02T07:37:55.877Z,55.70
2023-05-02T07:40:22.714Z,55.30
2023-05-02T07:42:50.936Z,55.20
2023-05-02T07:45:18.124Z,55.70
2023-05-02T07:47:46.362Z,55.80
2023-05-02T07:50:13.249Z,56.70
2023-05-02T07:52:40.082Z,55.30
2023-05-02T07:55:07.556Z,54.70
2023-05-02T07:57:34.330Z,54.60
2023-05-02T08:00:01.328Z,53.90
2023-05-02T08:02:41.346Z,53.20
2023-05-02T08:05:09.158Z,53.80
2023-05-02T08:07:37.244Z,53.50
2023-05-02T08:10:05.739Z,52.60
2023-05-02T08:12:32.535Z,53.00
2023-05-02T08:14:59.245Z,51.60
2023-05-02T08:17:28.936Z,51.80
2023-05-02T08:19:55.706Z,51.90
2023-05-02T08:22:22.366Z,52.80
2023-05-02T08:24:49.117Z,52.80
2023-05-02T08:27:15.868Z,52.90
2023-05-02T08:29:42.625Z,53.00
2023-05-02T08:32:09.459Z,52.40
2023-05-02T08:34:36.715Z,51.70
2023-05-02T08:37:09.129Z,50.90
2023-05-02T08:39:35.902Z,52.40
2023-05-02T08:42:09.940Z,50.70
2023-05-02T08:44:37.656Z,52.40
2023-05-02T08:47:06.023Z,50.50
2023-05-02T08:49:34.935Z,49.30
2023-05-02T08:52:02.226Z,48.40
2023-05-02T08:54:29.375Z,48.70
2023-05-02T08:56:56.782Z,48.30
2023-05-02T08:59:23.493Z,48.20
2023-05-02T09:01:55.260Z,47.70
2023-05-02T09:04:24.727Z,48.50
2023-05-02T09:06:51.903Z,47.80
2023-05-02T09:09:19.563Z,46.00
2023-05-02T09:11:47.811Z,45.80
2023-05-02T09:14:16.163Z,46.50
2023-05-02T09:16:43.512Z,46.50
2023-05-02T09:19:10.608Z,45.20
2023-05-02T09:21:41.270Z,44.70
2023-05-02T09:24:19.083Z,46.80
2023-05-02T09:27:00.810Z,44.40
2023-05-02T09:29:30.666Z,46.10
2023-05-02T09:31:57.563Z,44.00
2023-05-02T09:34:24.580Z,42.90
2023-05-02T09:36:54.467Z,43.10
2023-05-02T09:39:25.844Z,43.30
2023-05-02T09:41:53.526Z,43.60
2023-05-02T09:44:26.302Z,42.40
2023-05-02T09:46:54.927Z,43.90
2023-05-02T09:49:41.694Z,42.60
2023-05-02T09:52:22.142Z,44.40
2023-05-02T09:54:53.222Z,44.50
2023-05-02T09:57:20.584Z,41.60
2023-05-02T09:59:58.050Z,41.30
2023-05-02T10:02:26.080Z,42.50
2023-05-02T10:04:56.884Z,42.20
2023-05-02T10:07:24.815Z,41.90
2023-05-02T10:09:57.456Z,41.20
2023-05-02T10:12:30.665Z,42.80
2023-05-02T10:15:03.246Z,43.20
2023-05-02T10:17:42.254Z,44.30
2023-05-02T10:20:11.081Z,43.80
2023-05-02T10:22:38.636Z,42.70
2023-05-02T10:25:06.534Z,42.50
2023-05-02T10:27:33.493Z,40.70
2023-05-02T10:30:01.033Z,39.80
2023-05-02T10:32:34.391Z,42.10
2023-05-02T10:35:05.715Z,42.30
2023-05-02T10:37:34.584Z,41.20
2023-05-02T10:40:01.947Z,39.40
2023-05-02T10:42:30.171Z,39.20
2023-05-02T10:44:56.981Z,39.40
2023-05-02T10:47:26.764Z,38.60
2023-05-02T10:50:01.860Z,39.30
2023-05-02T10:52:38.795Z,40.00
2023-05-02T10:55:22.758Z,40.00
2023-05-02T10:58:22.323Z,39.20
2023-05-02T11:00:49.438Z,39.30
2023-05-02T11:03:54.239Z,39.30
2023-05-02T11:06:21.205Z,41.20
2023-05-02T11:08:48.067Z,39.70
2023-05-02T11:11:45.399Z,39.10
2023-05-02T11:14:33.269Z,41.20
2023-05-02T11:17:06.180Z,40.40
2023-05-02T11:19:38.802Z,39.10
2023-05-02T11:22:17.721Z,41.00
2023-05-02T11:24:47.787Z,42.00
2023-05-02T11:27:30.030Z,39.90
2023-05-02T11:29:57.553Z,42.00
2023-05-02T11:32:25.786Z,40.00
2023-05-02T11:34:55.504Z,38.40
2023-05-02T11:37:22.295Z,38.20
2023-05-02T11:39:51.476Z,37.80
2023-05-02T11:42:31.093Z,39.50
2023-05-02T11:45:00.113Z,40.90
2023-05-02T11:47:28.240Z,38.80
2023-05-02T11:49:56.436Z,38.60
2023-05-02T11:52:23.913Z,39.20
2023-05-02T11:54:54.312Z,38.50
2023-05-02T11:57:22.069Z,39.60
2023-05-02T11:59:53.060Z,38.40
2023-05-02T12:02:21.364Z,39.40
2023-05-02T12:04:48.193Z,38.80
2023-05-02T12:07:15.085Z,39.00
2023-05-02T12:09:52.892Z,39.20
2023-05-02T12:12:21.515Z,40.00
2023-05-02T12:14:48.635Z,39.70
2023-05-02T12:17:15.634Z,37.70
2023-05-02T12:19:42.671Z,36.50
2023-05-02T12:22:10.358Z,37.70
2023-05-02T12:24:37.208Z,38.30
2023-05-02T12:27:14.097Z,38.10
2023-05-02T12:29:45.169Z,38.90
2023-05-02T12:32:13.055Z,37.70
2023-05-02T12:34:40.705Z,37.20
2023-05-02T12:37:08.811Z,36.90
2023-05-02T12:39:36.310Z,37.50
2023-05-02T12:42:13.400Z,36.80
2023-05-02T12:44:42.604Z,38.20
2023-05-02T12:47:11.771Z,35.90
2023-05-02T12:49:51.488Z,35.70
2023-05-02T12:52:19.405Z,37.60
2023-05-02T12:54:46.721Z,36.00
2023-05-02T12:57:24.338Z,35.60
2023-05-02T12:59:54.469Z,37.40
2023-05-02T13:02:22.653Z,37.30
2023-05-02T13:04:49.541Z,36.50
2023-05-02T13:07:16.321Z,35.80
2023-05-02T13:09:43.005Z,35.60
2023-05-02T13:12:09.993Z,35.60
2023-05-02T13:14:36.763Z,35.70
2023-05-02T13:17:03.918Z,35.10
2023-05-02T13:19:31.449Z,34.80
2023-05-02T13:21:58.348Z,34.80
2023-05-02T13:24:25.329Z,34.90
2023-05-02T13:26:52.078Z,34.30
2023-05-02T13:29:18.843Z,34.50
2023-05-02T13:31:46.038Z,34.10
2023-05-02T13:34:12.808Z,34.30
2023-05-02T13:36:45.914Z,34.70
2023-05-02T13:39:13.806Z,33.70
2023-05-02T13:41:40.607Z,33.50
2023-05-02T13:44:09.171Z,33.10
2023-05-02T13:46:37.755Z,32.90
2023-05-02T13:49:05.235Z,32.60
2023-05-02T13:51:32.532Z,32.80
2023-05-02T13:53:59.882Z,33.20
2023-05-02T13:56:26.838Z,33.90
2023-05-02T13:58:53.786Z,33.00
2023-05-02T14:01:20.527Z,33.50
2023-05-02T14:03:47.397Z,32.90
2023-05-02T14:06:14.308Z,32.20
2023-05-02T14:08:41.097Z,32.30
2023-05-02T14:11:07.858Z,33.20
2023-05-02T14:13:34.597Z,34.20
2023-05-02T14:16:01.362Z,34.40
2023-05-02T14:18:28.243Z,34.40
2023-05-02T14:20:57.850Z,34.40
2023-05-02T14:23:24.838Z,33.50
2023-05-02T14:25:51.627Z,32.80
2023-05-02T14:28:18.459Z,32.40
2023-05-02T14:30:45.216Z,31.80
2023-05-02T14:33:12.131Z,31.00
2023-05-02T14:35:38.978Z,31.10
2023-05-02T14:38:05.679Z,31.70
2023-05-02T14:40:32.990Z,31.30
2023-05-02T14:42:59.788Z,31.60
2023-05-02T14:45:26.750Z,31.20
2023-05-02T14:47:53.471Z,31.40
2023-05-02T14:50:20.374Z,31.10
2023-05-02T14:52:47.116Z,30.90
2023-05-02T14:55:13.875Z,31.60
2023-05-02T14:57:40.618Z,31.10
2023-05-02T15:00:08.290Z,31.30
2023-05-02T15:02:36.076Z,31.50
2023-05-02T15:05:03.930Z,31.10
2023-05-02T15:07:30.732Z,30.90
2023-05-02T15:09:57.907Z,30.30
2023-05-02T15:12:26.237Z,30.50
2023-05-02T15:14:53.057Z,30.10
2023-05-02T15:17:19.729Z,30.00
2023-05-02T15:19:46.413Z,30.00
2023-05-02T15:22:13.080Z,30.00
2023-05-02T15:24:39.834Z,30.70
2023-05-02T15:27:06.561Z,30.80
2023-05-02T15:29:33.383Z,30.70
2023-05-02T15:32:00.201Z,31.10
2023-05-02T15:34:27.517Z,30.60
2023-05-02T15:36:56.046Z,30.10
2023-05-02T15:39:25.037Z,30.10
2023-05-02T15:41:53.083Z,30.60
2023-05-02T15:44:19.882Z,30.20
2023-05-02T15:46:47.249Z,30.20
2023-05-02T15:49:14.139Z,30.10
2023-05-02T15:51:40.839Z,30.00
2023-05-02T15:54:07.598Z,30.10
2023-05-02T15:56:34.401Z,30.00
2023-05-02T15:59:01.192Z,30.00
2023-05-02T16:01:27.947Z,30.00
2023-05-02T16:03:54.682Z,31.10
2023-05-02T16:06:21.388Z,30.80
2023-05-02T16:08:48.182Z,30.20
2023-05-02T16:11:15.004Z,30.70
2023-05-02T16:13:41.684Z,30.60
2023-05-02T16:16:08.527Z,30.90
2023-05-02T16:18:35.328Z,31.10
2023-05-02T16:21:02.230Z,31.70
2023-05-02T16:23:28.921Z,30.80
2023-05-02T16:25:59.769Z,30.20
2023-05-02T16:28:26.687Z,30.50
2023-05-02T16:30:53.565Z,30.70
2023-05-02T16:33:21.548Z,31.10
2023-05-02T16:35:48.406Z,30.70
2023-05-02T16:38:15.132Z,30.90
2023-05-02T16:40:41.900Z,31.30
2023-05-02T16:43:08.886Z,32.30
2023-05-02T16:45:35.706Z,33.10
2023-05-02T16:48:03.433Z,33.50
2023-05-02T16:50:30.340Z,33.50
2023-05-02T16:52:57.115Z,33.10
2023-05-02T16:55:23.921Z,33.70
2023-05-02T16:57:50.862Z,33.20
2023-05-02T17:00:18.370Z,33.40
2023-05-02T17:02:46.762Z,32.80
2023-05-02T17:05:13.693Z,32.50
2023-05-02T17:07:40.543Z,32.50
2023-05-02T17:10:07.853Z,32.40
2023-05-02T17:12:34.568Z,32.10
2023-05-02T17:15:02.308Z,31.90
2023-05-02T17:17:30.895Z,31.50
2023-05-02T17:19:57.662Z,31.80
2023-05-02T17:22:24.600Z,32.60
2023-05-02T17:24:53.975Z,33.20
2023-05-02T17:27:20.864Z,33.10
2023-05-02T17:29:47.548Z,35.00
2023-05-02T17:32:15.684Z,34.30
2023-05-02T17:34:43.418Z,35.80
2023-05-02T17:37:10.365Z,34.70
2023-05-02T17:39:37.069Z,34.90
2023-05-02T17:42:03.878Z,35.00
2023-05-02T17:44:36.084Z,35.80
2023-05-02T17:47:03.903Z,36.20
2023-05-02T17:49:30.740Z,36.50
2023-05-02T17:51:57.448Z,36.50
2023-05-02T17:54:24.312Z,36.70
2023-05-02T17:56:51.222Z,37.20
2023-05-02T17:59:18.828Z,37.50
2023-05-02T18:01:45.697Z,37.60
2023-05-02T18:04:14.043Z,37.30
2023-05-02T18:06:40.930Z,37.30
2023-05-02T18:09:07.771Z,37.60
2023-05-02T18:11:37.519Z,37.80
2023-05-02T18:14:06.037Z,38.30
2023-05-02T18:16:34.499Z,38.70
2023-05-02T18:19:01.666Z,39.00
2023-05-02T18:21:29.001Z,39.10
2023-05-02T18:23:56.881Z,39.50
2023-05-02T18:26:23.776Z,39.70
2023-05-02T18:28:53.138Z,40.00
2023-05-02T18:31:20.593Z,40.10
2023-05-02T18:33:47.545Z,40.70
2023-05-02T18:36:18.966Z,40.90
2023-05-02T18:38:45.885Z,41.70
2023-05-02T18:41:12.753Z,41.20
2023-05-02T18:43:39.455Z,41.40
2023-05-02T18:46:07.901Z,42.50
2023-05-02T18:48:36.002Z,42.60
2023-05-02T18:51:02.694Z,41.80
2023-05-02T18:53:29.531Z,42.40
2023-05-02T18:55:56.490Z,42.80
2023-05-02T18:58:23.470Z,43.10
2023-05-02T19:00:50.666Z,43.30
2023-05-02T19:03:17.562Z,44.40
2023-05-02T19:05:44.421Z,44.10
2023-05-02T19:08:12.057Z,44.00
2023-05-02T19:10:38.990Z,44.60
2023-05-02T19:13:05.716Z,44.30
2023-05-02T19:15:33.860Z,44.50
2023-05-02T19:18:00.778Z,45.80
2023-05-02T19:20:29.138Z,45.10
2023-05-02T19:23:07.174Z,45.70
2023-05-02T19:25:42.718Z,45.50
2023-05-02T19:28:10.662Z,45.90
2023-05-02T19:30:40.044Z,46.10
2023-05-02T19:33:06.982Z,46.50
2023-05-02T19:35:35.239Z,47.10
2023-05-02T19:38:03.269Z,46.90
2023-05-02T19:40:30.075Z,47.30
2023-05-02T19:42:56.870Z,47.50
2023-05-02T19:45:24.019Z,47.60
2023-05-02T19:47:50.814Z,48.70
2023-05-02T19:50:17.677Z,47.90
2023-05-02T19:52:44.968Z,48.20
2023-05-02T19:55:11.906Z,48.20
2023-05-02T19:57:38.629Z,48.40
2023-05-02T20:00:06.331Z,48.70
2023-05-02T20:02:39.415Z,49.70
2023-05-02T20:05:06.806Z,49.20
2023-05-02T20:07:33.558Z,49.50
2023-05-02T20:10:00.629Z,49.50
2023-05-02T20:12:27.652Z,49.70
2023-05-02T20:14:54.850Z,49.80
2023-05-02T20:17:21.510Z,49.70
2023-05-02T20:19:48.183Z,49.70
2023-05-02T20:22:15.104Z,49.70
2023-05-02T20:24:41.912Z,50.00
2023-05-02T20:27:08.732Z,50.10
2023-05-02T20:29:35.443Z,50.50
2023-05-02T20:32:02.250Z,50.80
2023-05-02T20:34:28.980Z,51.00
2023-05-02T20:36:55.722Z,51.00
2023-05-02T20:39:22.576Z,51.10
2023-05-02T20:41:49.629Z,51.00
2023-05-02T20:44:17.603Z,51.10
2023-05-02T20:46:44.274Z,51.30
2023-05-02T20:49:11.066Z,51.60
2023-05-02T20:51:37.766Z,51.60
2023-05-02T20:54:04.651Z,51.80
2023-05-02T20:56:31.401Z,52.00
2023-05-02T20:58:58.127Z,51.90
2023-05-02T21:01:26.281Z,52.20
2023-05-02T21:03:53.184Z,53.30
2023-05-02T21:06:20.974Z,52.30
2023-05-02T21:08:48.241Z,52.30
2023-05-02T21:11:15.971Z,52.70
2023-05-02T21:13:43.341Z,53.80
2023-05-02T21:16:17.553Z,53.30
2023-05-02T21:18:44.586Z,54.30
2023-05-02T21:21:11.346Z,53.20
2023-05-02T21:23:38.116Z,53.30
2023-05-02T21:26:05.107Z,53.50
2023-05-02T21:28:32.037Z,53.70
2023-05-02T21:31:00.807Z,54.20
2023-05-02T21:33:27.534Z,54.10
2023-05-02T21:35:57.809Z,54.30
2023-05-02T21:38:27.658Z,56.10
2023-05-02T21:40:54.489Z,54.90
2023-05-02T21:43:21.276Z,54.50
2023-05-02T21:45:49.541Z,54.80
2023-05-02T21:48:17.567Z,56.00
2023-05-02T21:50:45.225Z,56.20
2023-05-02T21:53:12.516Z,55.80
2023-05-02T21:55:39.772Z,55.80
2023-05-02T21:58:07.630Z,55.80
2023-05-02T22:00:38.812Z,56.80
2023-05-02T22:03:08.425Z,56.70
2023-05-02T22:05:42.174Z,57.10
2023-05-02T22:08:10.933Z,58.50
2023-05-02T22:10:39.355Z,57.30
2023-05-02T22:13:09.484Z,57.50
2023-05-02T22:15:36.731Z,56.90
2023-05-02T22:18:07.094Z,57.20
2023-05-02T22:20:33.929Z,56.90
2023-05-02T22:23:00.846Z,56.60
2023-05-02T22:25:27.671Z,56.90
2023-05-02T22:27:54.559Z,57.10
2023-05-02T22:30:21.432Z,57.20
2023-05-02T22:32:48.230Z,57.30
2023-05-02T22:35:15.067Z,57.30
2023-05-02T22:37:41.795Z,57.50
2023-05-02T22:40:10.258Z,57.60
2023-05-02T22:42:37.062Z,58.80
2023-05-02T22:45:04.528Z,58.20
2023-05-02T22:47:32.233Z,58.40
2023-05-02T22:49:59.465Z,58.50
2023-05-02T22:52:27.297Z,58.60
2023-05-02T22:54:54.225Z,58.80
2023-05-02T22:57:21.098Z,58.70
2023-05-02T22:59:47.881Z,58.90
2023-05-02T23:02:14.786Z,58.90
2023-05-02T23:04:41.498Z,59.10
2023-05-02T23:07:08.274Z,59.10
2023-05-02T23:09:34.972Z,59.10
2023-05-02T23:12:02.609Z,59.10
2023-05-02T23:14:29.418Z,59.10
2023-05-02T23:16:56.174Z,59.20
2023-05-02T23:19:23.032Z,59.30
2023-05-02T23:21:49.750Z,59.60
2023-05-02T23:24:16.456Z,59.50
2023-05-02T23:26:43.175Z,59.50
2023-05-02T23:29:10.999Z,59.80
2023-05-02T23:31:38.541Z,59.40
2023-05-02T23:34:05.536Z,59.90
2023-05-02T23:36:33.189Z,60.00
2023-05-02T23:39:02.410Z,60.10
2023-05-02T23:41:30.415Z,61.20
2023-05-02T23:43:57.132Z,61.70
2023-05-02T23:46:25.148Z,60.50
2023-05-02T23:48:51.922Z,61.20
2023-05-02T23:51:18.732Z,60.40
2023-05-02T23:53:45.400Z,60.60
2023-05-02T23:56:12.293Z,60.60
2023-05-02T23:58:39.094Z,60.60
